sensor_id;sensor_type;location;lat;lon;timestamp;temperature;humidity
69715;HTU21D;56981;53.532;49.398;2023-04-25T00:01:25;13.33;60.76
69715;HTU21D;56981;53.532;49.398;2023-04-25T00:03:51;13.44;60.10
69715;HTU21D;56981;53.532;49.398;2023-04-25T00:06:17;13.52;59.25
69715;HTU21D;56981;53.532;49.398;2023-04-25T00:08:43;13.65;58.90
69715;HTU21D;56981;53.532;49.398;2023-04-25T00:11:10;13.73;59.65
69715;HTU21D;56981;53.532;49.398;2023-04-25T00:13:36;13.76;58.60
69715;HTU21D;56981;53.532;49.398;2023-04-25T00:16:03;13.82;58.51
69715;HTU21D;56981;53.532;49.398;2023-04-25T00:18:30;13.84;60.36
69715;HTU21D;56981;53.532;49.398;2023-04-25T00:20:56;13.85;60.06
69715;HTU21D;56981;53.532;49.398;2023-04-25T00:23:22;13.90;58.61
69715;HTU21D;56981;53.532;49.398;2023-04-25T00:25:50;13.91;58.36
69715;HTU21D;56981;53.532;49.398;2023-04-25T00:28:16;13.95;58.87
69715;HTU21D;56981;53.532;49.398;2023-04-25T00:30:43;13.98;59.34
69715;HTU21D;56981;53.532;49.398;2023-04-25T00:33:09;14.04;58.47
69715;HTU21D;56981;53.532;49.398;2023-04-25T00:35:36;14.05;58.94
69715;HTU21D;56981;53.532;49.398;2023-04-25T00:38:02;14.08;58.59
69715;HTU21D;56981;53.532;49.398;2023-04-25T00:40:28;14.09;58.71
69715;HTU21D;56981;53.532;49.398;2023-04-25T00:42:55;14.09;58.98
69715;HTU21D;56981;53.532;49.398;2023-04-25T00:45:21;14.09;57.79
69715;HTU21D;56981;53.532;49.398;2023-04-25T00:47:47;14.14;58.48
69715;HTU21D;56981;53.532;49.398;2023-04-25T00:50:14;14.17;58.58
69715;HTU21D;56981;53.532;49.398;2023-04-25T00:52:43;14.19;57.89
69715;HTU21D;56981;53.532;49.398;2023-04-25T00:55:10;14.22;58.25
69715;HTU21D;56981;53.532;49.398;2023-04-25T00:57:37;14.23;58.67
69715;HTU21D;56981;53.532;49.398;2023-04-25T01:00:07;14.27;58.87
69715;HTU21D;56981;53.532;49.398;2023-04-25T01:02:34;14.30;58.89
69715;HTU21D;56981;53.532;49.398;2023-04-25T01:05:02;14.33;57.84
69715;HTU21D;56981;53.532;49.398;2023-04-25T01:07:28;14.34;57.80
69715;HTU21D;56981;53.532;49.398;2023-04-25T01:09:55;14.29;57.61
69715;HTU21D;56981;53.532;49.398;2023-04-25T01:12:21;14.30;58.25
69715;HTU21D;56981;53.532;49.398;2023-04-25T01:14:47;14.32;57.91
69715;HTU21D;56981;53.532;49.398;2023-04-25T01:17:14;14.33;57.13
69715;HTU21D;56981;53.532;49.398;2023-04-25T01:19:41;14.36;57.12
69715;HTU21D;56981;53.532;49.398;2023-04-25T01:22:07;14.38;57.07
69715;HTU21D;56981;53.532;49.398;2023-04-25T01:24:37;14.38;57.90
69715;HTU21D;56981;53.532;49.398;2023-04-25T01:27:03;14.41;56.89
69715;HTU21D;56981;53.532;49.398;2023-04-25T01:29:31;14.42;56.91
69715;HTU21D;56981;53.532;49.398;2023-04-25T01:31:59;14.45;57.74
69715;HTU21D;56981;53.532;49.398;2023-04-25T01:34:25;14.47;58.06
69715;HTU21D;56981;53.532;49.398;2023-04-25T01:36:52;14.47;57.84
69715;HTU21D;56981;53.532;49.398;2023-04-25T01:39:19;14.48;58.22
69715;HTU21D;56981;53.532;49.398;2023-04-25T01:41:47;14.50;57.45
69715;HTU21D;56981;53.532;49.398;2023-04-25T01:44:14;14.48;57.52
69715;HTU21D;56981;53.532;49.398;2023-04-25T01:46:40;14.49;57.44
69715;HTU21D;56981;53.532;49.398;2023-04-25T01:49:07;14.47;57.64
69715;HTU21D;56981;53.532;49.398;2023-04-25T01:51:33;14.50;57.78
69715;HTU21D;56981;53.532;49.398;2023-04-25T01:54:00;14.52;57.71
69715;HTU21D;56981;53.532;49.398;2023-04-25T01:56:30;14.53;57.25
69715;HTU21D;56981;53.532;49.398;2023-04-25T01:58:57;14.54;58.31
69715;HTU21D;56981;53.532;49.398;2023-04-25T02:01:23;14.55;57.19
69715;HTU21D;56981;53.532;49.398;2023-04-25T02:03:49;14.58;57.43
69715;HTU21D;56981;53.532;49.398;2023-04-25T02:06:15;14.62;58.86
69715;HTU21D;56981;53.532;49.398;2023-04-25T02:08:41;14.65;57.64
69715;HTU21D;56981;53.532;49.398;2023-04-25T02:11:08;14.65;57.75
69715;HTU21D;56981;53.532;49.398;2023-04-25T02:13:34;14.68;58.90
69715;HTU21D;56981;53.532;49.398;2023-04-25T02:16:00;14.70;57.41
69715;HTU21D;56981;53.532;49.398;2023-04-25T02:18:26;14.74;59.27
69715;HTU21D;56981;53.532;49.398;2023-04-25T02:20:52;14.74;59.86
69715;HTU21D;56981;53.532;49.398;2023-04-25T02:23:18;14.77;59.16
69715;HTU21D;56981;53.532;49.398;2023-04-25T02:25:45;14.81;58.69
69715;HTU21D;56981;53.532;49.398;2023-04-25T02:28:11;14.84;60.87
69715;HTU21D;56981;53.532;49.398;2023-04-25T02:30:37;14.79;60.65
69715;HTU21D;56981;53.532;49.398;2023-04-25T02:33:03;14.79;61.73
69715;HTU21D;56981;53.532;49.398;2023-04-25T02:35:29;14.84;60.93
69715;HTU21D;56981;53.532;49.398;2023-04-25T02:37:55;14.88;61.40
69715;HTU21D;56981;53.532;49.398;2023-04-25T02:40:22;14.89;60.18
69715;HTU21D;56981;53.532;49.398;2023-04-25T02:42:48;14.91;62.15
69715;HTU21D;56981;53.532;49.398;2023-04-25T02:45:14;14.87;62.71
69715;HTU21D;56981;53.532;49.398;2023-04-25T02:47:40;14.84;64.02
69715;HTU21D;56981;53.532;49.398;2023-04-25T02:50:07;14.81;64.24
69715;HTU21D;56981;53.532;49.398;2023-04-25T02:52:34;14.80;63.54
69715;HTU21D;56981;53.532;49.398;2023-04-25T02:55:00;14.81;61.63
69715;HTU21D;56981;53.532;49.398;2023-04-25T02:57:26;14.89;62.77
69715;HTU21D;56981;53.532;49.398;2023-04-25T02:59:52;14.92;63.29
69715;HTU21D;56981;53.532;49.398;2023-04-25T03:02:18;14.95;62.21
69715;HTU21D;56981;53.532;49.398;2023-04-25T03:04:44;14.93;63.37
69715;HTU21D;56981;53.532;49.398;2023-04-25T03:07:11;14.98;61.84
69715;HTU21D;56981;53.532;49.398;2023-04-25T03:09:37;15.04;64.53
69715;HTU21D;56981;53.532;49.398;2023-04-25T03:12:03;15.13;61.85
69715;HTU21D;56981;53.532;49.398;2023-04-25T03:14:29;15.19;62.78
69715;HTU21D;56981;53.532;49.398;2023-04-25T03:16:55;15.14;64.41
69715;HTU21D;56981;53.532;49.398;2023-04-25T03:19:21;15.16;63.69
69715;HTU21D;56981;53.532;49.398;2023-04-25T03:21:48;15.21;62.05
69715;HTU21D;56981;53.532;49.398;2023-04-25T03:24:15;15.17;62.98
69715;HTU21D;56981;53.532;49.398;2023-04-25T03:26:41;15.18;63.23
69715;HTU21D;56981;53.532;49.398;2023-04-25T03:29:08;15.15;63.99
69715;HTU21D;56981;53.532;49.398;2023-04-25T03:31:34;15.18;63.44
69715;HTU21D;56981;53.532;49.398;2023-04-25T03:34:00;15.14;61.96
69715;HTU21D;56981;53.532;49.398;2023-04-25T03:36:26;15.18;63.44
69715;HTU21D;56981;53.532;49.398;2023-04-25T03:38:52;15.27;61.12
69715;HTU21D;56981;53.532;49.398;2023-04-25T03:41:18;15.26;60.86
69715;HTU21D;56981;53.532;49.398;2023-04-25T03:43:44;15.19;60.80
69715;HTU21D;56981;53.532;49.398;2023-04-25T03:46:11;15.18;61.34
69715;HTU21D;56981;53.532;49.398;2023-04-25T03:48:37;15.18;61.81
69715;HTU21D;56981;53.532;49.398;2023-04-25T03:51:04;15.11;62.21
69715;HTU21D;56981;53.532;49.398;2023-04-25T03:53:30;15.21;61.54
69715;HTU21D;56981;53.532;49.398;2023-04-25T03:55:56;15.28;60.81
69715;HTU21D;56981;53.532;49.398;2023-04-25T03:58:23;15.33;60.83
69715;HTU21D;56981;53.532;49.398;2023-04-25T04:00:50;15.39;61.35
69715;HTU21D;56981;53.532;49.398;2023-04-25T04:03:16;15.38;61.34
69715;HTU21D;56981;53.532;49.398;2023-04-25T04:05:42;15.28;60.94
69715;HTU21D;56981;53.532;49.398;2023-04-25T04:08:09;15.39;61.40
69715;HTU21D;56981;53.532;49.398;2023-04-25T04:10:35;15.40;61.98
69715;HTU21D;56981;53.532;49.398;2023-04-25T04:13:01;15.38;62.02
69715;HTU21D;56981;53.532;49.398;2023-04-25T04:15:28;15.43;62.01
69715;HTU21D;56981;53.532;49.398;2023-04-25T04:17:57;15.46;61.37
69715;HTU21D;56981;53.532;49.398;2023-04-25T04:20:23;15.47;61.26
69715;HTU21D;56981;53.532;49.398;2023-04-25T04:22:49;15.45;61.50
69715;HTU21D;56981;53.532;49.398;2023-04-25T04:25:16;15.41;60.96
69715;HTU21D;56981;53.532;49.398;2023-04-25T04:27:42;15.48;61.99
69715;HTU21D;56981;53.532;49.398;2023-04-25T04:30:12;15.59;62.43
69715;HTU21D;56981;53.532;49.398;2023-04-25T04:32:38;15.67;60.99
69715;HTU21D;56981;53.532;49.398;2023-04-25T04:35:05;15.90;60.78
69715;HTU21D;56981;53.532;49.398;2023-04-25T04:37:32;16.15;59.66
69715;HTU21D;56981;53.532;49.398;2023-04-25T04:39:59;16.22;58.03
69715;HTU21D;56981;53.532;49.398;2023-04-25T04:42:28;16.05;58.68
69715;HTU21D;56981;53.532;49.398;2023-04-25T04:44:55;15.95;59.37
69715;HTU21D;56981;53.532;49.398;2023-04-25T04:47:21;15.98;60.83
69715;HTU21D;56981;53.532;49.398;2023-04-25T04:49:49;16.17;58.21
69715;HTU21D;56981;53.532;49.398;2023-04-25T04:52:16;16.29;56.69
69715;HTU21D;56981;53.532;49.398;2023-04-25T04:54:42;16.19;58.62
69715;HTU21D;56981;53.532;49.398;2023-04-25T04:57:08;16.16;58.13
69715;HTU21D;56981;53.532;49.398;2023-04-25T04:59:34;16.17;59.21
69715;HTU21D;56981;53.532;49.398;2023-04-25T05:02:01;16.30;58.61
69715;HTU21D;56981;53.532;49.398;2023-04-25T05:04:27;16.46;57.15
69715;HTU21D;56981;53.532;49.398;2023-04-25T05:06:53;16.62;56.28
69715;HTU21D;56981;53.532;49.398;2023-04-25T05:09:20;16.81;55.94
69715;HTU21D;56981;53.532;49.398;2023-04-25T05:11:46;17.16;54.94
69715;HTU21D;56981;53.532;49.398;2023-04-25T05:14:12;17.43;54.81
69715;HTU21D;56981;53.532;49.398;2023-04-25T05:16:39;17.62;53.37
69715;HTU21D;56981;53.532;49.398;2023-04-25T05:19:05;17.54;53.13
69715;HTU21D;56981;53.532;49.398;2023-04-25T05:21:31;17.54;52.85
69715;HTU21D;56981;53.532;49.398;2023-04-25T05:23:57;17.75;53.03
69715;HTU21D;56981;53.532;49.398;2023-04-25T05:26:24;17.93;52.47
69715;HTU21D;56981;53.532;49.398;2023-04-25T05:28:50;17.95;52.29
69715;HTU21D;56981;53.532;49.398;2023-04-25T05:31:17;17.79;52.45
69715;HTU21D;56981;53.532;49.398;2023-04-25T05:33:43;17.55;53.01
69715;HTU21D;56981;53.532;49.398;2023-04-25T05:36:09;17.32;54.48
69715;HTU21D;56981;53.532;49.398;2023-04-25T05:38:39;17.32;54.46
69715;HTU21D;56981;53.532;49.398;2023-04-25T05:41:05;17.26;54.46
69715;HTU21D;56981;53.532;49.398;2023-04-25T05:43:31;17.39;54.49
69715;HTU21D;56981;53.532;49.398;2023-04-25T05:45:58;17.36;54.61
69715;HTU21D;56981;53.532;49.398;2023-04-25T05:48:25;17.48;54.31
69715;HTU21D;56981;53.532;49.398;2023-04-25T05:50:51;17.52;54.26
69715;HTU21D;56981;53.532;49.398;2023-04-25T05:53:19;17.70;54.70
69715;HTU21D;56981;53.532;49.398;2023-04-25T05:55:46;17.77;53.31
69715;HTU21D;56981;53.532;49.398;2023-04-25T05:58:12;17.88;53.04
69715;HTU21D;56981;53.532;49.398;2023-04-25T06:00:39;17.85;52.86
69715;HTU21D;56981;53.532;49.398;2023-04-25T06:03:07;17.87;53.59
69715;HTU21D;56981;53.532;49.398;2023-04-25T06:05:36;17.79;53.13
69715;HTU21D;56981;53.532;49.398;2023-04-25T06:08:02;17.90;53.47
69715;HTU21D;56981;53.532;49.398;2023-04-25T06:10:31;18.04;52.53
69715;HTU21D;56981;53.532;49.398;2023-04-25T06:12:57;18.37;52.67
69715;HTU21D;56981;53.532;49.398;2023-04-25T06:15:23;18.63;50.86
69715;HTU21D;56981;53.532;49.398;2023-04-25T06:17:50;18.69;51.00
69715;HTU21D;56981;53.532;49.398;2023-04-25T06:20:16;18.87;52.07
69715;HTU21D;56981;53.532;49.398;2023-04-25T06:22:45;18.98;50.60
69715;HTU21D;56981;53.532;49.398;2023-04-25T06:25:11;18.95;50.49
69715;HTU21D;56981;53.532;49.398;2023-04-25T06:27:37;18.83;51.44
69715;HTU21D;56981;53.532;49.398;2023-04-25T06:30:04;18.83;50.95
69715;HTU21D;56981;53.532;49.398;2023-04-25T06:32:31;18.77;51.46
69715;HTU21D;56981;53.532;49.398;2023-04-25T06:34:57;18.71;51.01
69715;HTU21D;56981;53.532;49.398;2023-04-25T06:37:26;18.67;51.30
69715;HTU21D;56981;53.532;49.398;2023-04-25T06:39:53;18.66;52.56
69715;HTU21D;56981;53.532;49.398;2023-04-25T06:42:19;18.57;52.69
69715;HTU21D;56981;53.532;49.398;2023-04-25T06:44:45;18.54;51.79
69715;HTU21D;56981;53.532;49.398;2023-04-25T06:47:11;18.53;52.50
69715;HTU21D;56981;53.532;49.398;2023-04-25T06:49:37;18.50;52.98
69715;HTU21D;56981;53.532;49.398;2023-04-25T06:52:04;18.63;52.12
69715;HTU21D;56981;53.532;49.398;2023-04-25T06:54:30;18.70;52.40
69715;HTU21D;56981;53.532;49.398;2023-04-25T06:56:56;18.67;52.27
69715;HTU21D;56981;53.532;49.398;2023-04-25T06:59:23;18.69;52.64
69715;HTU21D;56981;53.532;49.398;2023-04-25T07:01:49;18.63;53.79
69715;HTU21D;56981;53.532;49.398;2023-04-25T07:04:15;18.61;53.75
69715;HTU21D;56981;53.532;49.398;2023-04-25T07:06:42;18.55;52.88
69715;HTU21D;56981;53.532;49.398;2023-04-25T07:09:12;18.34;53.27
69715;HTU21D;56981;53.532;49.398;2023-04-25T07:11:38;18.20;55.07
69715;HTU21D;56981;53.532;49.398;2023-04-25T07:14:05;18.14;56.98
69715;HTU21D;56981;53.532;49.398;2023-04-25T07:16:31;18.12;57.39
69715;HTU21D;56981;53.532;49.398;2023-04-25T07:18:57;18.24;59.44
69715;HTU21D;56981;53.532;49.398;2023-04-25T07:21:27;18.28;55.64
69715;HTU21D;56981;53.532;49.398;2023-04-25T07:23:53;18.29;58.35
69715;HTU21D;56981;53.532;49.398;2023-04-25T07:26:19;18.43;57.19
69715;HTU21D;56981;53.532;49.398;2023-04-25T07:28:45;18.39;55.90
69715;HTU21D;56981;53.532;49.398;2023-04-25T07:31:15;18.50;55.97
69715;HTU21D;56981;53.532;49.398;2023-04-25T07:33:44;18.55;55.39
69715;HTU21D;56981;53.532;49.398;2023-04-25T07:36:13;18.48;55.13
69715;HTU21D;56981;53.532;49.398;2023-04-25T07:38:41;18.54;55.63
69715;HTU21D;56981;53.532;49.398;2023-04-25T07:41:07;18.55;57.87
69715;HTU21D;56981;53.532;49.398;2023-04-25T07:43:33;18.58;54.87
69715;HTU21D;56981;53.532;49.398;2023-04-25T07:46:00;18.51;55.58
69715;HTU21D;56981;53.532;49.398;2023-04-25T07:48:26;18.65;55.87
69715;HTU21D;56981;53.532;49.398;2023-04-25T07:50:53;18.66;53.32
69715;HTU21D;56981;53.532;49.398;2023-04-25T07:53:19;18.68;53.58
69715;HTU21D;56981;53.532;49.398;2023-04-25T07:55:45;18.64;54.79
69715;HTU21D;56981;53.532;49.398;2023-04-25T07:58:12;18.62;53.80
69715;HTU21D;56981;53.532;49.398;2023-04-25T08:00:41;18.62;53.40
69715;HTU21D;56981;53.532;49.398;2023-04-25T08:03:09;18.55;52.15
69715;HTU21D;56981;53.532;49.398;2023-04-25T08:05:35;18.44;52.46
69715;HTU21D;56981;53.532;49.398;2023-04-25T08:08:03;18.47;52.11
69715;HTU21D;56981;53.532;49.398;2023-04-25T08:10:30;18.47;54.29
69715;HTU21D;56981;53.532;49.398;2023-04-25T08:12:56;18.56;52.91
69715;HTU21D;56981;53.532;49.398;2023-04-25T08:15:23;18.53;54.44
69715;HTU21D;56981;53.532;49.398;2023-04-25T08:17:49;18.66;55.17
69715;HTU21D;56981;53.532;49.398;2023-04-25T08:20:16;18.68;53.72
69715;HTU21D;56981;53.532;49.398;2023-04-25T08:22:42;18.72;50.95
69715;HTU21D;56981;53.532;49.398;2023-04-25T08:25:09;18.83;51.44
69715;HTU21D;56981;53.532;49.398;2023-04-25T08:27:36;18.87;50.58
69715;HTU21D;56981;53.532;49.398;2023-04-25T08:30:03;18.88;50.99
69715;HTU21D;56981;53.532;49.398;2023-04-25T08:32:30;18.84;51.26
69715;HTU21D;56981;53.532;49.398;2023-04-25T08:34:57;18.79;51.17
69715;HTU21D;56981;53.532;49.398;2023-04-25T08:37:23;18.79;51.40
69715;HTU21D;56981;53.532;49.398;2023-04-25T08:39:49;18.70;52.14
69715;HTU21D;56981;53.532;49.398;2023-04-25T08:42:18;18.77;52.19
69715;HTU21D;56981;53.532;49.398;2023-04-25T08:44:48;18.70;52.30
69715;HTU21D;56981;53.532;49.398;2023-04-25T08:47:15;18.71;51.49
69715;HTU21D;56981;53.532;49.398;2023-04-25T08:49:45;18.71;51.83
69715;HTU21D;56981;53.532;49.398;2023-04-25T08:52:13;18.73;52.40
69715;HTU21D;56981;53.532;49.398;2023-04-25T08:54:45;18.67;52.32
69715;HTU21D;56981;53.532;49.398;2023-04-25T08:57:14;18.54;52.03
69715;HTU21D;56981;53.532;49.398;2023-04-25T08:59:41;18.51;53.07
69715;HTU21D;56981;53.532;49.398;2023-04-25T09:02:12;18.58;52.95
69715;HTU21D;56981;53.532;49.398;2023-04-25T09:04:45;18.62;53.01
69715;HTU21D;56981;53.532;49.398;2023-04-25T09:07:12;18.58;53.63
69715;HTU21D;56981;53.532;49.398;2023-04-25T09:09:38;18.64;54.02
69715;HTU21D;56981;53.532;49.398;2023-04-25T09:12:05;18.68;53.76
69715;HTU21D;56981;53.532;49.398;2023-04-25T09:14:31;18.77;54.69
69715;HTU21D;56981;53.532;49.398;2023-04-25T09:16:59;18.81;53.65
69715;HTU21D;56981;53.532;49.398;2023-04-25T09:19:31;18.93;53.95
69715;HTU21D;56981;53.532;49.398;2023-04-25T09:21:59;18.98;52.76
69715;HTU21D;56981;53.532;49.398;2023-04-25T09:24:42;18.99;53.81
69715;HTU21D;56981;53.532;49.398;2023-04-25T09:27:12;18.91;53.38
69715;HTU21D;56981;53.532;49.398;2023-04-25T09:29:40;18.92;54.37
69715;HTU21D;56981;53.532;49.398;2023-04-25T09:32:23;19.01;54.34
69715;HTU21D;56981;53.532;49.398;2023-04-25T09:34:51;19.07;54.30
69715;HTU21D;56981;53.532;49.398;2023-04-25T09:37:26;18.98;54.48
69715;HTU21D;56981;53.532;49.398;2023-04-25T09:39:57;18.99;53.01
69715;HTU21D;56981;53.532;49.398;2023-04-25T09:42:32;18.98;53.47
69715;HTU21D;56981;53.532;49.398;2023-04-25T09:45:02;18.99;54.96
69715;HTU21D;56981;53.532;49.398;2023-04-25T09:47:30;18.99;55.14
69715;HTU21D;56981;53.532;49.398;2023-04-25T09:49:56;18.88;56.73
69715;HTU21D;56981;53.532;49.398;2023-04-25T09:52:24;18.88;55.52
69715;HTU21D;56981;53.532;49.398;2023-04-25T09:54:51;18.88;55.34
69715;HTU21D;56981;53.532;49.398;2023-04-25T09:57:24;18.72;58.09
69715;HTU21D;56981;53.532;49.398;2023-04-25T09:59:55;18.77;57.48
69715;HTU21D;56981;53.532;49.398;2023-04-25T10:02:26;18.63;55.67
69715;HTU21D;56981;53.532;49.398;2023-04-25T10:04:54;18.49;55.58
69715;HTU21D;56981;53.532;49.398;2023-04-25T10:07:23;18.39;56.69
69715;HTU21D;56981;53.532;49.398;2023-04-25T10:09:56;18.29;57.19
69715;HTU21D;56981;53.532;49.398;2023-04-25T10:12:26;18.24;57.06
69715;HTU21D;56981;53.532;49.398;2023-04-25T10:14:52;18.19;56.91
69715;HTU21D;56981;53.532;49.398;2023-04-25T10:17:19;18.10;57.89
69715;HTU21D;56981;53.532;49.398;2023-04-25T10:19:47;18.07;56.94
69715;HTU21D;56981;53.532;49.398;2023-04-25T10:22:38;17.94;58.76
69715;HTU21D;56981;53.532;49.398;2023-04-25T10:25:06;17.84;59.71
69715;HTU21D;56981;53.532;49.398;2023-04-25T10:27:32;17.78;60.65
69715;HTU21D;56981;53.532;49.398;2023-04-25T10:30:05;17.47;62.44
69715;HTU21D;56981;53.532;49.398;2023-04-25T10:32:36;17.34;61.05
69715;HTU21D;56981;53.532;49.398;2023-04-25T10:35:16;17.41;61.60
69715;HTU21D;56981;53.532;49.398;2023-04-25T10:38:10;17.34;62.66
69715;HTU21D;56981;53.532;49.398;2023-04-25T10:40:36;17.30;61.75
69715;HTU21D;56981;53.532;49.398;2023-04-25T10:45:59;17.28;62.81
69715;HTU21D;56981;53.532;49.398;2023-04-25T10:48:29;17.11;64.86
69715;HTU21D;56981;53.532;49.398;2023-04-25T10:53:34;17.21;65.02
69715;HTU21D;56981;53.532;49.398;2023-04-25T10:56:19;17.24;63.73
69715;HTU21D;56981;53.532;49.398;2023-04-25T10:58:47;17.29;64.11
69715;HTU21D;56981;53.532;49.398;2023-04-25T11:01:21;17.33;62.35
69715;HTU21D;56981;53.532;49.398;2023-04-25T11:03:47;17.25;63.85
69715;HTU21D;56981;53.532;49.398;2023-04-25T11:09:13;17.16;63.86
69715;HTU21D;56981;53.532;49.398;2023-04-25T11:11:40;17.02;64.18
69715;HTU21D;56981;53.532;49.398;2023-04-25T11:14:06;17.06;64.66
69715;HTU21D;56981;53.532;49.398;2023-04-25T11:16:32;17.07;63.94
69715;HTU21D;56981;53.532;49.398;2023-04-25T11:18:58;17.08;64.39
69715;HTU21D;56981;53.532;49.398;2023-04-25T11:21:25;17.11;64.28
69715;HTU21D;56981;53.532;49.398;2023-04-25T11:23:57;17.23;64.72
69715;HTU21D;56981;53.532;49.398;2023-04-25T11:26:24;17.29;64.26
69715;HTU21D;56981;53.532;49.398;2023-04-25T11:28:50;17.25;65.90
69715;HTU21D;56981;53.532;49.398;2023-04-25T11:31:20;17.20;65.73
69715;HTU21D;56981;53.532;49.398;2023-04-25T11:33:47;17.22;64.30
69715;HTU21D;56981;53.532;49.398;2023-04-25T11:36:13;17.16;64.07
69715;HTU21D;56981;53.532;49.398;2023-04-25T11:38:39;17.13;65.44
69715;HTU21D;56981;53.532;49.398;2023-04-25T11:41:06;17.16;64.87
69715;HTU21D;56981;53.532;49.398;2023-04-25T11:43:32;17.11;65.71
69715;HTU21D;56981;53.532;49.398;2023-04-25T11:45:58;17.06;65.56
69715;HTU21D;56981;53.532;49.398;2023-04-25T11:48:24;17.00;66.36
69715;HTU21D;56981;53.532;49.398;2023-04-25T11:50:50;16.90;64.82
69715;HTU21D;56981;53.532;49.398;2023-04-25T11:53:20;16.91;65.67
69715;HTU21D;56981;53.532;49.398;2023-04-25T11:55:46;16.86;66.50
69715;HTU21D;56981;53.532;49.398;2023-04-25T11:58:13;16.92;66.03
69715;HTU21D;56981;53.532;49.398;2023-04-25T12:00:42;16.93;66.42
69715;HTU21D;56981;53.532;49.398;2023-04-25T12:03:09;16.85;66.46
69715;HTU21D;56981;53.532;49.398;2023-04-25T12:05:35;16.82;67.10
69715;HTU21D;56981;53.532;49.398;2023-04-25T12:08:13;16.78;66.37
69715;HTU21D;56981;53.532;49.398;2023-04-25T12:10:42;16.73;67.46
69715;HTU21D;56981;53.532;49.398;2023-04-25T12:13:23;16.74;67.07
69715;HTU21D;56981;53.532;49.398;2023-04-25T12:15:54;16.73;67.56
69715;HTU21D;56981;53.532;49.398;2023-04-25T12:18:23;16.67;67.93
69715;HTU21D;56981;53.532;49.398;2023-04-25T12:20:49;16.60;68.64
69715;HTU21D;56981;53.532;49.398;2023-04-25T12:23:29;16.56;68.71
69715;HTU21D;56981;53.532;49.398;2023-04-25T12:25:56;16.49;68.28
69715;HTU21D;56981;53.532;49.398;2023-04-25T12:28:25;16.49;68.60
69715;HTU21D;56981;53.532;49.398;2023-04-25T12:30:57;16.45;69.24
69715;HTU21D;56981;53.532;49.398;2023-04-25T12:33:28;16.37;71.45
69715;HTU21D;56981;53.532;49.398;2023-04-25T12:35:55;16.36;71.05
69715;HTU21D;56981;53.532;49.398;2023-04-25T12:38:23;16.35;71.26
69715;HTU21D;56981;53.532;49.398;2023-04-25T12:40:49;16.32;72.66
69715;HTU21D;56981;53.532;49.398;2023-04-25T12:43:16;16.27;71.98
69715;HTU21D;56981;53.532;49.398;2023-04-25T12:45:54;16.18;72.24
69715;HTU21D;56981;53.532;49.398;2023-04-25T12:48:21;16.16;73.06
69715;HTU21D;56981;53.532;49.398;2023-04-25T12:50:51;16.08;73.65
69715;HTU21D;56981;53.532;49.398;2023-04-25T12:53:22;16.02;74.06
69715;HTU21D;56981;53.532;49.398;2023-04-25T12:55:50;15.97;74.38
69715;HTU21D;56981;53.532;49.398;2023-04-25T12:58:18;15.92;74.85
69715;HTU21D;56981;53.532;49.398;2023-04-25T13:00:45;15.87;76.37
69715;HTU21D;56981;53.532;49.398;2023-04-25T13:03:11;15.82;76.42
69715;HTU21D;56981;53.532;49.398;2023-04-25T13:05:38;15.71;76.30
69715;HTU21D;56981;53.532;49.398;2023-04-25T13:08:05;15.68;77.11
69715;HTU21D;56981;53.532;49.398;2023-04-25T13:10:31;15.60;78.21
69715;HTU21D;56981;53.532;49.398;2023-04-25T13:12:59;15.60;78.34
69715;HTU21D;56981;53.532;49.398;2023-04-25T13:15:27;15.58;76.62
69715;HTU21D;56981;53.532;49.398;2023-04-25T13:18:03;15.54;76.95
69715;HTU21D;56981;53.532;49.398;2023-04-25T13:20:31;15.52;77.08
69715;HTU21D;56981;53.532;49.398;2023-04-25T13:22:58;15.52;77.02
69715;HTU21D;56981;53.532;49.398;2023-04-25T13:25:25;15.46;77.44
69715;HTU21D;56981;53.532;49.398;2023-04-25T13:27:52;15.45;78.65
69715;HTU21D;56981;53.532;49.398;2023-04-25T13:30:18;15.47;77.98
69715;HTU21D;56981;53.532;49.398;2023-04-25T13:32:44;15.48;77.79
69715;HTU21D;56981;53.532;49.398;2023-04-25T13:35:12;15.45;78.44
69715;HTU21D;56981;53.532;49.398;2023-04-25T13:37:39;15.45;78.88
69715;HTU21D;56981;53.532;49.398;2023-04-25T13:40:08;15.51;78.08
69715;HTU21D;56981;53.532;49.398;2023-04-25T13:42:36;15.45;78.08
69715;HTU21D;56981;53.532;49.398;2023-04-25T13:45:02;15.48;78.85
69715;HTU21D;56981;53.532;49.398;2023-04-25T13:47:29;15.45;79.17
69715;HTU21D;56981;53.532;49.398;2023-04-25T13:49:56;15.46;78.85
69715;HTU21D;56981;53.532;49.398;2023-04-25T13:52:23;15.43;79.16
69715;HTU21D;56981;53.532;49.398;2023-04-25T13:54:50;15.42;80.26
69715;HTU21D;56981;53.532;49.398;2023-04-25T13:57:17;15.40;80.49
69715;HTU21D;56981;53.532;49.398;2023-04-25T13:59:44;15.45;79.17
69715;HTU21D;56981;53.532;49.398;2023-04-25T14:02:12;15.41;81.08
69715;HTU21D;56981;53.532;49.398;2023-04-25T14:04:38;15.34;82.48
69715;HTU21D;56981;53.532;49.398;2023-04-25T14:07:04;15.26;82.82
69715;HTU21D;56981;53.532;49.398;2023-04-25T14:09:30;15.15;82.42
69715;HTU21D;56981;53.532;49.398;2023-04-25T14:11:57;15.19;82.36
69715;HTU21D;56981;53.532;49.398;2023-04-25T14:14:24;15.18;83.27
69715;HTU21D;56981;53.532;49.398;2023-04-25T14:16:51;15.06;85.16
69715;HTU21D;56981;53.532;49.398;2023-04-25T14:19:20;15.00;84.58
69715;HTU21D;56981;53.532;49.398;2023-04-25T14:21:47;14.96;86.19
69715;HTU21D;56981;53.532;49.398;2023-04-25T14:24:13;14.97;83.65
69715;HTU21D;56981;53.532;49.398;2023-04-25T14:26:40;14.94;83.50
69715;HTU21D;56981;53.532;49.398;2023-04-25T14:29:09;14.98;83.27
69715;HTU21D;56981;53.532;49.398;2023-04-25T14:31:38;15.00;83.50
69715;HTU21D;56981;53.532;49.398;2023-04-25T14:34:05;14.96;83.17
69715;HTU21D;56981;53.532;49.398;2023-04-25T14:36:33;14.93;83.26
69715;HTU21D;56981;53.532;49.398;2023-04-25T14:38:59;14.88;84.43
69715;HTU21D;56981;53.532;49.398;2023-04-25T14:41:28;14.80;84.18
69715;HTU21D;56981;53.532;49.398;2023-04-25T14:43:55;14.77;85.16
69715;HTU21D;56981;53.532;49.398;2023-04-25T14:46:22;14.73;84.96
69715;HTU21D;56981;53.532;49.398;2023-04-25T14:48:52;14.68;84.90
69715;HTU21D;56981;53.532;49.398;2023-04-25T14:51:18;14.68;84.97
69715;HTU21D;56981;53.532;49.398;2023-04-25T14:53:44;14.59;84.90
69715;HTU21D;56981;53.532;49.398;2023-04-25T14:56:10;14.56;85.20
69715;HTU21D;56981;53.532;49.398;2023-04-25T14:58:36;14.52;85.60
69715;HTU21D;56981;53.532;49.398;2023-04-25T15:01:04;14.50;85.56
69715;HTU21D;56981;53.532;49.398;2023-04-25T15:03:30;14.47;85.26
69715;HTU21D;56981;53.532;49.398;2023-04-25T15:05:57;14.42;85.58
69715;HTU21D;56981;53.532;49.398;2023-04-25T15:08:24;14.41;85.56
69715;HTU21D;56981;53.532;49.398;2023-04-25T15:10:50;14.39;85.25
69715;HTU21D;56981;53.532;49.398;2023-04-25T15:13:18;14.36;85.20